Time;durP1;ratioP1;P1;durP2;ratioP2;P2;SDS_P1;SDS_P2;PMS_P1;PMS_P2;Temp;Humidity;BMP_temperature;BMP_pressure;BME280_temperature;BME280_humidity;BME280_pressure;Samples;Min_cycle;Max_cycle;Signal;HPM_P1;HPM_P2
2022/11/09 00:02:19;;;;;;;2.95;1.52;;;;;;;17.09;100.00;100057.63;20794948;28;20076;-94
2022/11/09 00:12:20;;;;;;;5.40;1.48;;;;;;;17.21;100.00;100055.53;20792069;28;20041;-94
2022/11/09 00:22:22;;;;;;;3.63;1.42;;;;;;;17.10;100.00;100036.94;20805189;28;20514;-92
2022/11/09 00:32:23;;;;;;;2.35;1.20;;;;;;;17.18;100.00;100053.16;20805188;28;20076;-93
2022/11/09 00:42:28;;;;;;;2.63;1.50;;;;;;;16.78;100.00;99987.16;20772747;28;20050;-92
2022/11/09 00:52:30;;;;;;;2.22;1.23;;;;;;;17.29;100.00;100065.53;20816127;28;20080;-95
2022/11/09 01:02:31;;;;;;;2.42;1.20;;;;;;;17.28;100.00;100066.53;20858061;28;20056;-92
2022/11/09 01:12:33;;;;;;;2.40;1.20;;;;;;;17.29;100.00;100078.16;20802998;28;20049;-94
2022/11/09 01:22:34;;;;;;;2.60;1.27;;;;;;;17.29;100.00;100088.91;20787159;28;20100;-93
2022/11/09 01:32:36;;;;;;;2.67;0.90;;;;;;;17.28;100.00;100076.47;20786823;28;20065;-93
2022/11/09 01:42:39;;;;;;;2.97;1.50;;;;;;;17.24;100.00;100074.09;20758572;28;20581;-93
2022/11/09 01:52:43;;;;;;;2.63;1.27;;;;;;;17.28;100.00;100076.47;20785745;28;20430;-91
2022/11/09 02:03:09;;;;;;;1.80;1.40;;;;;;;17.12;100.00;100051.06;20816502;28;20075;-92
2022/11/09 02:13:13;;;;;;;1.95;1.25;;;;;;;17.27;100.00;100064.03;20789150;28;20042;-93
2022/11/09 02:23:15;;;;;;;2.10;1.20;;;;;;;17.07;100.00;100043.47;20756457;28;20052;-93
2022/11/09 02:33:18;;;;;;;1.58;0.85;;;;;;;16.96;100.00;100028.38;20800107;28;20076;-93
2022/11/09 02:43:20;;;;;;;1.83;0.98;;;;;;;17.25;100.00;100072.22;20799177;28;20046;-92
2022/11/09 02:53:22;;;;;;;1.90;1.00;;;;;;;17.25;100.00;100078.47;20834775;28;20049;-93
2022/11/09 03:03:24;;;;;;;1.70;1.10;;;;;;;17.26;100.00;100063.16;20859403;28;20049;-93
2022/11/09 03:13:25;;;;;;;1.52;1.02;;;;;;;17.26;100.00;100063.16;20743362;28;20495;-92
2022/11/09 03:23:28;;;;;;;1.88;1.20;;;;;;;17.27;100.00;100074.78;20684939;28;20116;-93
2022/11/09 03:33:30;;;;;;;2.80;1.27;;;;;;;17.26;100.00;100087.38;20799665;28;20051;-93
2022/11/09 03:43:32;;;;;;;1.27;0.88;;;;;;;17.05;100.00;100061.63;20822858;28;20053;-92
2022/11/09 03:53:33;;;;;;;1.30;0.80;;;;;;;17.26;100.00;100100.81;20809712;28;20133;-94
2022/11/09 04:03:35;;;;;;;1.33;0.73;;;;;;;17.19;100.00;100079.06;20757168;28;20041;-93
2022/11/09 04:13:37;;;;;;;1.80;1.17;;;;;;;17.24;100.00;100098.28;20703448;28;20042;-92
2022/11/09 04:23:38;;;;;;;2.05;1.05;;;;;;;17.25;100.00;100107.19;20784893;28;20125;-91
2022/11/09 04:33:40;;;;;;;2.10;0.77;;;;;;;17.24;100.00;100109.06;20819973;28;20042;-91
2022/11/09 04:43:41;;;;;;;1.08;0.73;;;;;;;17.15;100.00;100123.38;20779794;28;20057;-87
2022/11/09 04:53:44;;;;;;;2.17;1.00;;;;;;;17.27;100.00;100133.97;20761034;28;20103;-88
2022/11/09 05:03:45;;;;;;;1.98;0.80;;;;;;;17.24;100.00;100135.97;20749262;28;20046;-89
2022/11/09 05:13:47;;;;;;;2.00;1.23;;;;;;;17.41;100.00;100157.66;20763880;28;20053;-90
2022/11/09 05:23:58;;;;;;;3.28;1.20;;;;;;;17.47;100.00;100162.41;20773157;28;20060;-92
2022/11/09 05:33:59;;;;;;;5.15;1.35;;;;;;;17.43;100.00;100149.41;20785870;28;20048;-96
2022/11/09 05:44:01;;;;;;;2.85;1.00;;;;;;;17.37;100.00;100134.75;20868460;28;20041;-94
2022/11/09 05:54:02;;;;;;;2.60;1.27;;;;;;;17.43;100.00;100144.03;20841433;28;20064;-92
2022/11/09 06:04:04;;;;;;;4.93;1.35;;;;;;;17.56;100.00;100162.50;20771653;28;20045;-93
2022/11/09 06:24:36;;;;;;;3.33;1.80;;;;;;;17.24;100.00;100125.19;21057919;23;20464;-90
2022/11/09 06:34:37;;;;;;;1.65;1.00;;;;;;;17.42;100.00;100167.41;20384187;28;20056;-92
2022/11/09 06:44:39;;;;;;;1.40;0.73;;;;;;;17.46;100.00;100187.63;20385649;28;20055;-87
2022/11/09 06:54:40;;;;;;;3.78;1.30;;;;;;;17.44;100.00;100192.31;20385559;28;20174;-88
2022/11/09 07:04:42;;;;;;;3.47;1.02;;;;;;;17.41;100.00;100214.16;20372974;28;20118;-88
2022/11/09 07:14:43;;;;;;;5.55;1.42;;;;;;;17.39;100.00;100224.22;20367470;28;20058;-90
2022/11/09 07:24:45;;;;;;;2.47;0.80;;;;;;;17.37;100.00;100221.66;20371735;28;20047;-90
2022/11/09 07:34:46;;;;;;;1.65;1.00;;;;;;;17.37;100.00;100236.97;20398289;28;20408;-90
2022/11/09 07:44:48;;;;;;;2.03;0.90;;;;;;;17.35;100.00;100239.81;20387086;28;20094;-88
2022/11/09 07:54:49;;;;;;;1.77;0.82;;;;;;;17.35;100.00;100247.03;20371120;28;20525;-86
2022/11/09 08:04:52;;;;;;;2.63;1.10;;;;;;;17.27;100.00;100238.88;20372126;28;20837;-88
2022/11/09 08:14:54;;;;;;;3.42;1.00;;;;;;;17.36;100.00;100272.94;20389724;28;20059;-86
2022/11/09 08:24:55;;;;;;;2.80;1.17;;;;;;;17.36;100.00;100267.56;20410952;28;20052;-88
2022/11/09 08:34:57;;;;;;;2.13;1.10;;;;;;;17.28;100.00;100260.22;20394417;28;20054;-88
2022/11/09 08:44:58;;;;;;;1.52;1.00;;;;;;;17.37;100.00;100285.41;20390010;28;20110;-88
2022/11/09 08:55:00;;;;;;;3.00;1.42;;;;;;;17.36;100.00;100278.34;20391734;28;20134;-88
2022/11/09 09:05:02;;;;;;;3.42;1.10;;;;;;;17.36;100.00;100281.03;20391746;28;20050;-88
2022/11/09 09:15:04;;;;;;;3.10;0.98;;;;;;;17.36;100.00;100283.72;20393220;28;20051;-87
2022/11/09 09:25:06;;;;;;;1.40;0.82;;;;;;;17.35;100.00;100279.31;20389676;28;20063;-88
2022/11/09 09:35:08;;;;;;;1.75;0.93;;;;;;;17.35;100.00;100292.78;20389325;28;20527;-87
2022/11/09 09:45:17;;;;;;;1.77;0.82;;;;;;;17.35;100.00;100290.09;20386018;29;20059;-88
2022/11/09 09:55:33;;;;;;;1.58;0.80;;;;;;;17.10;100.00;100276.28;20391900;29;20062;-88
2022/11/09 10:05:56;;;;;;;2.85;0.73;;;;;;;17.04;100.00;100258.06;20386470;29;20056;-88
2022/11/09 10:16:04;;;;;;;2.05;0.90;;;;;;;17.33;100.00;100310.91;20386282;28;20051;-88
2022/11/09 10:26:32;;;;;;;1.25;0.75;;;;;;;17.33;100.00;100311.75;20391120;28;20111;-88
2022/11/09 10:36:43;;;;;;;1.42;0.60;;;;;;;17.13;100.00;100270.63;20409367;29;20055;-88
2022/11/09 10:47:04;;;;;;;2.15;1.02;;;;;;;17.32;100.00;100315.44;20401807;28;20085;-88
2022/11/09 10:57:24;;;;;;;1.77;0.88;;;;;;;17.31;100.00;100313.75;20402366;28;20513;-88
2022/11/09 11:07:45;;;;;;;2.00;0.90;;;;;;;16.98;100.00;100247.88;20400760;28;20408;-88
2022/11/09 11:18:15;;;;;;;0.88;0.50;;;;;;;17.32;100.00;100291.22;20401679;28;20071;-88
2022/11/09 11:28:48;;;;;;;2.15;0.63;;;;;;;17.23;100.00;100300.19;20394670;29;20064;-87
2022/11/09 11:39:23;;;;;;;1.35;0.70;;;;;;;17.32;100.00;100319.97;20397333;29;20112;-89
2022/11/09 11:50:00;;;;;;;1.48;0.70;;;;;;;17.31;100.00;100327.19;20392902;28;20051;-88
2022/11/09 12:00:20;;;;;;;1.67;0.70;;;;;;;17.30;100.00;100322.81;20397566;29;20723;-88
2022/11/09 12:11:11;;;;;;;0.88;0.75;;;;;;;17.31;100.00;100305.66;20398414;28;20076;-88
2022/11/09 12:21:39;;;;;;;1.00;0.68;;;;;;;17.30;100.00;100297.75;20384500;28;20044;-90
2022/11/09 12:32:11;;;;;;;3.22;0.80;;;;;;;17.30;100.00;100292.38;20369902;28;20047;-90
2022/11/09 12:42:53;;;;;;;2.80;1.00;;;;;;;17.34;100.00;100291.91;20395756;28;20138;-90
2022/11/09 12:53:13;;;;;;;3.47;1.08;;;;;;;17.37;100.00;100280.03;20380416;28;20138;-88
2022/11/09 13:03:36;;;;;;;3.65;1.30;;;;;;;17.41;100.00;100284.13;20346930;28;20055;-88
2022/11/09 13:14:21;;;;;;;2.10;0.80;;;;;;;17.44;100.00;100289.19;20361011;28;20055;-88
2022/11/09 13:25:14;;;;;;;4.65;1.30;;;;;;;17.47;100.00;100302.34;20375463;28;20051;-90
2022/11/09 13:35:58;;;;;;;3.30;0.93;;;;;;;17.11;99.99;100256.47;20391166;28;20059;-91
2022/11/09 13:46:28;;;;;;;4.18;0.90;;;;;;;17.32;99.18;100315.44;20383348;28;20052;-91
2022/11/09 13:56:49;;;;;;;2.42;1.00;;;;;;;17.38;98.57;100330.97;20388242;28;20052;-90
2022/11/09 14:07:26;;;;;;;2.15;0.65;;;;;;;17.50;98.19;100366.66;20400246;28;20059;-92
2022/11/09 14:18:09;;;;;;;3.38;0.80;;;;;;;17.51;97.85;100383.66;20402790;28;20052;-90
2022/11/09 14:28:31;;;;;;;1.63;0.90;;;;;;;17.42;97.29;100380.00;20404574;28;20047;-90
2022/11/09 14:38:51;;;;;;;2.30;0.70;;;;;;;17.32;97.19;100380.00;20400259;28;20051;-90
2022/11/09 14:49:11;;;;;;;2.35;1.00;;;;;;;17.33;96.69;100392.47;20357328;28;20052;-89
2022/11/09 14:59:33;;;;;;;2.03;0.80;;;;;;;17.51;96.73;100432.94;20394098;28;20154;-96
2022/11/09 15:09:57;;;;;;;0.93;0.60;;;;;;;17.51;96.76;100435.63;20768059;23;20103;-92
2022/11/09 15:20:17;;;;;;;1.85;0.70;;;;;;;17.52;97.08;100445.41;20698548;23;20047;-92
2022/11/09 15:30:41;;;;;;;1.77;0.75;;;;;;;17.53;97.12;100463.25;20449398;28;20083;-89
2022/11/09 15:41:11;;;;;;;2.40;1.05;;;;;;;17.53;97.89;100474.00;20433566;28;20047;-88
2022/11/09 15:51:31;;;;;;;1.83;0.70;;;;;;;17.52;98.48;100483.06;20422922;28;20548;-84
2022/11/09 16:01:52;;;;;;;1.48;0.75;;;;;;;17.33;98.96;100478.56;20426931;28;20047;-89
2022/11/09 16:12:12;;;;;;;8.00;2.78;;;;;;;17.52;99.37;100517.22;20448341;28;20047;-88
2022/11/09 16:22:32;;;;;;;6.55;2.47;;;;;;;17.48;100.00;100529.28;20432247;28;20058;-89
2022/11/09 16:32:52;;;;;;;7.85;2.67;;;;;;;17.36;100.00;100526.69;20395925;28;20051;-85
2022/11/09 16:43:12;;;;;;;6.88;2.30;;;;;;;17.24;100.00;100528.72;20391289;28;20412;-86
2022/11/09 16:53:32;;;;;;;7.38;3.10;;;;;;;17.41;100.00;100566.66;20418250;28;20047;-84
2022/11/09 17:03:53;;;;;;;8.25;2.47;;;;;;;17.41;100.00;100580.09;20417727;28;20052;-86
2022/11/09 17:14:12;;;;;;;5.57;2.65;;;;;;;17.40;100.00;100599.94;20423704;28;20071;-93
2022/11/09 17:24:34;;;;;;;4.97;2.47;;;;;;;17.39;100.00;100619.75;20408877;28;20063;-86
2022/11/09 17:34:54;;;;;;;4.68;1.77;;;;;;;17.38;100.00;100643.13;20416601;28;20688;-88
2022/11/09 17:45:14;;;;;;;6.85;2.58;;;;;;;17.38;100.00;100647.66;20439699;28;20086;-88
2022/11/09 17:55:36;;;;;;;5.25;2.40;;;;;;;17.36;100.00;100649.66;20428553;28;20039;-87
2022/11/09 18:05:56;;;;;;;5.93;2.40;;;;;;;16.88;100.00;100592.88;20434646;28;20075;-88
2022/11/09 18:16:18;;;;;;;4.70;2.17;;;;;;;17.37;100.00;100699.78;20454521;28;20055;-89
2022/11/09 18:26:38;;;;;;;3.30;1.48;;;;;;;17.36;100.00;100725.00;20449137;28;20055;-94
2022/11/09 18:36:58;;;;;;;3.90;1.98;;;;;;;17.22;100.00;100713.59;20436515;28;20055;-89
2022/11/09 18:47:19;;;;;;;4.00;1.70;;;;;;;17.36;100.00;100743.81;20446979;28;20055;-87
2022/11/09 18:57:39;;;;;;;4.20;1.60;;;;;;;17.06;100.00;100702.50;20435651;28;20043;-87
2022/11/09 19:07:59;;;;;;;3.53;1.70;;;;;;;17.34;100.00;100761.94;20448249;28;20051;-91
2022/11/09 19:18:19;;;;;;;3.15;1.80;;;;;;;17.34;100.00;100791.53;20440505;28;20508;-89
2022/11/09 19:28:40;;;;;;;3.83;1.75;;;;;;;17.34;100.00;100786.16;20454266;28;20055;-89
2022/11/09 19:39:00;;;;;;;2.58;1.70;;;;;;;17.34;100.00;100794.25;20460247;28;20051;-90
2022/11/09 19:49:20;;;;;;;3.85;1.73;;;;;;;16.94;100.00;100758.19;20477969;28;20087;-91
2022/11/09 19:59:40;;;;;;;3.17;1.83;;;;;;;17.33;100.00;100852.56;20467683;28;20051;-90
2022/11/09 20:10:02;;;;;;;3.15;1.50;;;;;;;16.90;100.00;100814.09;20475260;28;20055;-91
2022/11/09 20:20:22;;;;;;;2.95;1.52;;;;;;;17.32;100.00;100885.00;20473218;28;20043;-90
2022/11/09 20:30:42;;;;;;;4.35;1.80;;;;;;;17.31;100.00;100908.34;20467898;28;20043;-91
2022/11/09 20:41:05;;;;;;;4.30;1.80;;;;;;;17.31;100.00;100920.97;20485547;28;20055;-89
2022/11/09 20:51:24;;;;;;;3.72;1.52;;;;;;;17.30;100.00;100947.00;20486363;28;20119;-90
2022/11/09 21:01:44;;;;;;;2.47;1.42;;;;;;;17.20;100.00;100941.56;20473497;28;20055;-90
2022/11/09 21:12:20;;;;;;;3.45;1.60;;;;;;;16.91;100.00;100893.75;20468273;28;20047;-93
2022/11/09 21:33:18;;;;;;;2.78;1.40;;;;;;;17.30;100.00;100973.09;20469056;28;20051;-92
2022/11/09 21:43:38;;;;;;;4.43;1.60;;;;;;;17.07;100.00;100949.84;20467886;28;20043;-90
2022/11/09 21:53:58;;;;;;;3.58;1.73;;;;;;;17.09;100.00;100969.38;20467231;28;20051;-89
2022/11/09 22:04:18;;;;;;;3.00;1.75;;;;;;;17.30;100.00;101016.13;20466310;28;20137;-91
2022/11/09 22:25:17;;;;;;;2.47;1.30;;;;;;;16.90;100.00;100978.13;20467464;28;20047;-92
2022/11/09 22:35:37;;;;;;;2.55;1.40;;;;;;;17.29;100.00;101052.09;20474428;28;20043;-91
2022/11/09 22:46:02;;;;;;;2.00;1.35;;;;;;;17.09;100.00;101042.03;20477744;28;20051;-89
2022/11/09 22:56:22;;;;;;;3.30;1.30;;;;;;;17.28;100.00;101088.06;20477342;28;20488;-88
2022/11/09 23:06:43;;;;;;;3.55;1.50;;;;;;;17.27;100.00;101092.56;20472795;28;20039;-92
2022/11/09 23:18:52;;;;;;;1.60;1.02;;;;;;;17.27;100.00;101114.09;20477154;28;20047;-91
2022/11/09 23:27:43;;;;;;;2.03;1.20;;;;;;;17.27;100.00;101124.03;20480577;28;20536;-91
2022/11/09 23:38:04;;;;;;;3.03;1.50;;;;;;;16.95;100.00;101075.41;20488261;28;20047;-91
2022/11/09 23:48:24;;;;;;;1.73;1.10;;;;;;;17.26;100.00;101142.00;20479064;28;20575;-93
2022/11/09 23:58:47;;;;;;;2.60;1.55;;;;;;;17.27;100.00;101164.38;20478406;28;20043;-90
